createdAt,value
2023-02-28T00:01:27.077Z,59.30
2023-02-28T00:03:54.751Z,59.34
2023-02-28T00:06:22.205Z,59.18
2023-02-28T00:08:49.674Z,58.96
2023-02-28T00:11:17.922Z,58.46
2023-02-28T00:13:49.742Z,58.46
2023-02-28T00:16:21.637Z,59.00
2023-02-28T00:18:49.516Z,59.50
2023-02-28T00:21:18.065Z,59.77
2023-02-28T00:23:45.762Z,59.18
2023-02-28T00:26:13.154Z,59.45
2023-02-28T00:28:43.880Z,59.62
2023-02-28T00:31:11.491Z,59.46
2023-02-28T00:33:39.028Z,59.66
2023-02-28T00:36:08.629Z,59.92
2023-02-28T00:38:38.453Z,60.02
2023-02-28T00:41:06.433Z,60.20
2023-02-28T00:43:35.634Z,60.01
2023-02-28T00:46:03.949Z,59.62
2023-02-28T00:48:31.882Z,59.08
2023-02-28T00:50:59.485Z,59.01
2023-02-28T00:53:27.093Z,58.70
2023-02-28T00:55:54.432Z,58.60
2023-02-28T00:58:21.930Z,58.41
2023-02-28T01:00:50.142Z,58.14
2023-02-28T01:03:19.417Z,58.46
2023-02-28T01:05:47.485Z,58.63
2023-02-28T01:08:15.419Z,58.61
2023-02-28T01:10:44.508Z,58.92
2023-02-28T01:13:12.942Z,58.55
2023-02-28T01:15:43.490Z,59.05
2023-02-28T01:18:12.178Z,58.60
2023-02-28T01:20:39.441Z,58.34
2023-02-28T01:23:06.774Z,57.77
2023-02-28T01:25:36.632Z,57.62
2023-02-28T01:28:06.801Z,57.17
2023-02-28T01:30:35.117Z,57.71
2023-02-28T01:33:02.625Z,58.01
2023-02-28T01:35:30.129Z,58.13
2023-02-28T01:38:04.722Z,57.83
2023-02-28T01:40:37.287Z,57.75
2023-02-28T01:43:10.557Z,57.80
2023-02-28T01:45:38.250Z,57.46
2023-02-28T01:48:09.049Z,57.40
2023-02-28T01:50:40.560Z,57.63
2023-02-28T01:53:14.853Z,57.51
2023-02-28T01:55:43.916Z,58.17
2023-02-28T01:58:11.500Z,57.71
2023-02-28T02:00:39.966Z,57.95
2023-02-28T02:03:15.246Z,57.59
2023-02-28T02:05:48.791Z,57.80
2023-02-28T02:08:22.786Z,58.12
2023-02-28T02:10:52.288Z,58.29
2023-02-28T02:13:19.819Z,58.15
2023-02-28T02:16:21.475Z,58.77
2023-02-28T02:18:53.685Z,58.59
2023-02-28T02:21:46.036Z,58.47
2023-02-28T02:24:49.036Z,58.54
2023-02-28T02:27:47.461Z,58.22
2023-02-28T02:30:52.125Z,58.49
2023-02-28T02:33:28.373Z,58.61
2023-02-28T02:36:00.839Z,58.94
2023-02-28T02:38:46.277Z,57.99
2023-02-28T02:41:26.714Z,57.67
2023-02-28T02:44:08.532Z,57.90
2023-02-28T02:46:38.778Z,57.79
2023-02-28T02:49:10.369Z,58.22
2023-02-28T02:51:39.166Z,58.26
2023-02-28T02:54:24.338Z,57.99
2023-02-28T02:56:52.448Z,57.16
2023-02-28T02:59:22.615Z,57.64
2023-02-28T03:01:53.248Z,56.86
2023-02-28T03:04:22.523Z,56.84
2023-02-28T03:06:55.748Z,57.41
2023-02-28T03:09:23.893Z,57.24
2023-02-28T03:11:53.306Z,57.02
2023-02-28T03:14:46.150Z,57.02
2023-02-28T03:17:25.603Z,57.13
2023-02-28T03:19:54.778Z,57.30
2023-02-28T03:22:53.708Z,56.87
2023-02-28T03:25:59.244Z,56.77
2023-02-28T03:28:33.237Z,55.90
2023-02-28T03:31:10.272Z,55.76
2023-02-28T03:33:43.535Z,56.17
2023-02-28T03:36:17.344Z,57.14
2023-02-28T03:38:52.734Z,56.89
2023-02-28T03:41:41.647Z,56.69
2023-02-28T03:44:16.501Z,56.54
2023-02-28T03:46:49.763Z,56.32
2023-02-28T03:49:23.489Z,55.79
2023-02-28T03:51:51.208Z,56.31
2023-02-28T03:54:24.696Z,55.46
2023-02-28T03:57:06.945Z,55.23
2023-02-28T03:59:47.285Z,56.05
2023-02-28T04:02:14.638Z,55.90
2023-02-28T04:04:46.245Z,55.64
2023-02-28T04:07:13.755Z,56.13
2023-02-28T04:09:41.880Z,55.74
2023-02-28T04:12:09.423Z,55.77
2023-02-28T04:14:37.032Z,55.93
2023-02-28T04:17:04.640Z,55.66
2023-02-28T04:19:32.060Z,56.21
2023-02-28T04:21:59.543Z,56.54
2023-02-28T04:24:28.647Z,56.36
2023-02-28T04:26:57.626Z,56.91
2023-02-28T04:29:29.182Z,56.95
2023-02-28T04:31:59.068Z,56.22
2023-02-28T04:34:27.701Z,56.08
2023-02-28T04:37:11.626Z,56.23
2023-02-28T04:39:40.335Z,56.07
2023-02-28T04:42:07.824Z,56.09
2023-02-28T04:44:35.798Z,56.55
2023-02-28T04:47:03.000Z,56.51
2023-02-28T04:49:30.351Z,57.04
2023-02-28T04:51:57.759Z,56.49
2023-02-28T04:54:25.544Z,56.66
2023-02-28T04:56:52.848Z,56.42
2023-02-28T04:59:21.413Z,56.55
2023-02-28T05:01:50.388Z,56.76
2023-02-28T05:04:18.303Z,57.23
2023-02-28T05:06:45.594Z,56.78
2023-02-28T05:09:12.896Z,57.08
2023-02-28T05:11:40.831Z,56.85
2023-02-28T05:14:12.641Z,56.53
2023-02-28T05:16:40.336Z,56.20
2023-02-28T05:19:07.887Z,56.02
2023-02-28T05:21:55.889Z,55.40
2023-02-28T05:24:26.031Z,55.88
2023-02-28T05:26:55.166Z,56.09
2023-02-28T05:29:22.938Z,57.00
2023-02-28T05:31:50.583Z,56.32
2023-02-28T05:34:18.020Z,56.21
2023-02-28T05:36:45.548Z,56.56
2023-02-28T05:39:14.073Z,55.88
2023-02-28T05:41:44.921Z,55.83
2023-02-28T05:44:13.130Z,55.90
2023-02-28T05:46:40.677Z,56.21
2023-02-28T05:49:07.974Z,56.62
2023-02-28T05:51:37.266Z,56.46
2023-02-28T05:54:04.954Z,56.54
2023-02-28T05:56:32.805Z,56.91
2023-02-28T05:59:00.293Z,59.35
2023-02-28T06:01:38.244Z,59.53
2023-02-28T06:04:08.015Z,59.87
2023-02-28T06:06:37.355Z,60.75
2023-02-28T06:09:06.230Z,62.46
2023-02-28T06:11:34.342Z,63.62
2023-02-28T06:14:02.863Z,63.40
2023-02-28T06:16:32.053Z,63.88
2023-02-28T06:19:01.017Z,65.27
2023-02-28T06:21:29.448Z,65.03
2023-02-28T06:23:58.425Z,65.15
2023-02-28T06:26:26.302Z,65.10
2023-02-28T06:28:54.133Z,66.11
2023-02-28T06:31:22.201Z,66.03
2023-02-28T06:33:50.051Z,65.50
2023-02-28T06:36:17.998Z,65.72
2023-02-28T06:38:45.596Z,65.95
2023-02-28T06:41:12.912Z,65.71
2023-02-28T06:43:42.377Z,67.88
2023-02-28T06:46:12.479Z,67.27
2023-02-28T06:48:40.088Z,67.03
2023-02-28T06:51:08.643Z,66.51
2023-02-28T06:53:36.527Z,66.46
2023-02-28T06:56:08.642Z,66.21
2023-02-28T06:58:36.577Z,66.11
2023-02-28T07:01:04.709Z,66.11
2023-02-28T07:03:34.380Z,65.51
2023-02-28T07:06:02.057Z,66.79
2023-02-28T07:08:29.406Z,67.19
2023-02-28T07:10:57.239Z,66.46
2023-02-28T07:13:24.960Z,66.50
2023-02-28T07:15:59.290Z,66.01
2023-02-28T07:18:27.122Z,67.18
2023-02-28T07:20:54.585Z,66.91
2023-02-28T07:23:22.295Z,66.27
2023-02-28T07:25:51.736Z,65.69
2023-02-28T07:28:19.215Z,66.74
2023-02-28T07:30:46.614Z,66.57
2023-02-28T07:33:14.306Z,67.15
2023-02-28T07:35:42.123Z,66.62
2023-02-28T07:38:09.744Z,66.87
2023-02-28T07:40:37.532Z,66.48
2023-02-28T07:43:04.956Z,66.60
2023-02-28T07:45:35.428Z,66.07
2023-02-28T07:48:06.393Z,66.05
2023-02-28T07:50:33.818Z,65.63
2023-02-28T07:53:01.516Z,66.24
2023-02-28T07:55:29.014Z,66.26
2023-02-28T07:57:58.215Z,65.63
2023-02-28T08:00:25.931Z,66.64
2023-02-28T08:02:53.316Z,66.61
2023-02-28T08:05:22.262Z,66.25
2023-02-28T08:07:50.652Z,65.77
2023-02-28T08:10:18.159Z,65.89
2023-02-28T08:12:47.814Z,66.63
2023-02-28T08:15:15.148Z,64.50
2023-02-28T08:17:42.668Z,65.90
2023-02-28T08:20:11.421Z,65.23
2023-02-28T08:22:38.910Z,64.72
2023-02-28T08:25:08.227Z,64.55
2023-02-28T08:27:36.470Z,65.45
2023-02-28T08:30:04.763Z,64.53
2023-02-28T08:32:34.258Z,65.07
2023-02-28T08:35:02.854Z,65.25
2023-02-28T08:37:30.214Z,64.92
2023-02-28T08:39:57.816Z,65.16
2023-02-28T08:42:25.515Z,64.24
2023-02-28T08:44:52.975Z,64.05
2023-02-28T08:47:20.349Z,64.26
2023-02-28T08:49:47.715Z,62.96
2023-02-28T08:52:17.594Z,63.35
2023-02-28T08:54:45.085Z,63.82
2023-02-28T08:57:12.296Z,63.65
2023-02-28T08:59:39.675Z,63.62
2023-02-28T09:02:07.091Z,62.91
2023-02-28T09:04:35.195Z,63.25
2023-02-28T09:07:02.531Z,62.96
2023-02-28T09:09:29.965Z,62.57
2023-02-28T09:11:58.306Z,61.69
2023-02-28T09:14:25.810Z,60.17
2023-02-28T09:16:53.207Z,59.98
2023-02-28T09:19:20.568Z,59.94
2023-02-28T09:21:48.010Z,59.94
2023-02-28T09:24:16.416Z,60.32
2023-02-28T09:26:56.505Z,59.90
2023-02-28T09:29:32.469Z,59.05
2023-02-28T09:32:00.498Z,58.99
2023-02-28T09:34:28.934Z,58.70
2023-02-28T09:36:56.315Z,58.73
2023-02-28T09:39:24.607Z,57.82
2023-02-28T09:41:53.436Z,56.99
2023-02-28T09:44:28.239Z,57.03
2023-02-28T09:47:01.972Z,57.16
2023-02-28T09:49:38.856Z,56.91
2023-02-28T09:52:12.160Z,57.47
2023-02-28T09:54:40.152Z,57.61
2023-02-28T09:57:19.203Z,56.64
2023-02-28T10:00:01.633Z,55.60
2023-02-28T10:02:32.853Z,56.80
2023-02-28T10:05:08.232Z,56.34
2023-02-28T10:07:47.322Z,55.87
2023-02-28T10:10:42.046Z,56.45
2023-02-28T10:13:43.460Z,56.24
2023-02-28T10:16:35.802Z,56.90
2023-02-28T10:19:17.273Z,55.78
2023-02-28T10:21:55.674Z,54.23
2023-02-28T10:24:49.085Z,53.75
2023-02-28T10:27:19.690Z,53.97
2023-02-28T10:29:55.419Z,53.90
2023-02-28T10:32:32.462Z,53.51
2023-02-28T10:35:20.831Z,52.36
2023-02-28T10:37:51.092Z,51.57
2023-02-28T10:40:18.681Z,52.13
2023-02-28T10:43:19.947Z,50.56
2023-02-28T10:46:09.162Z,50.85
2023-02-28T10:48:46.034Z,52.41
2023-02-28T10:51:15.656Z,51.60
2023-02-28T10:54:03.103Z,50.56
2023-02-28T10:56:32.106Z,49.46
2023-02-28T10:59:09.094Z,48.70
2023-02-28T11:01:50.214Z,46.37
2023-02-28T11:04:23.766Z,44.22
2023-02-28T11:07:20.758Z,43.77
2023-02-28T11:09:52.423Z,43.59
2023-02-28T11:12:46.894Z,45.27
2023-02-28T11:15:26.449Z,45.73
2023-02-28T11:18:28.908Z,45.96
2023-02-28T11:21:00.344Z,46.43
2023-02-28T11:23:31.910Z,46.17
2023-02-28T11:26:03.160Z,44.33
2023-02-28T11:28:36.010Z,42.42
2023-02-28T11:31:17.630Z,42.48
2023-02-28T11:33:56.658Z,43.19
2023-02-28T11:36:27.120Z,43.51
2023-02-28T11:38:57.128Z,43.30
2023-02-28T11:41:41.512Z,43.09
2023-02-28T11:44:32.710Z,43.08
2023-02-28T11:47:16.121Z,43.12
2023-02-28T11:49:50.208Z,43.09
2023-02-28T11:52:37.267Z,43.99
2023-02-28T11:55:35.671Z,44.18
2023-02-28T11:58:25.069Z,44.55
2023-02-28T12:01:22.719Z,44.07
2023-02-28T12:03:52.951Z,43.11
2023-02-28T12:06:45.022Z,43.27
2023-02-28T12:09:34.353Z,43.94
2023-02-28T12:12:26.540Z,43.26
2023-02-28T12:15:18.372Z,42.85
2023-02-28T12:17:56.237Z,42.44
2023-02-28T12:21:11.262Z,42.91
2023-02-28T12:24:05.258Z,42.96
2023-02-28T12:26:47.852Z,43.11
2023-02-28T12:29:35.360Z,42.47
2023-02-28T12:32:19.960Z,42.04
2023-02-28T12:34:51.159Z,42.57
2023-02-28T12:37:28.758Z,42.16
2023-02-28T12:40:27.031Z,42.28
2023-02-28T12:43:00.030Z,42.40
2023-02-28T12:45:39.774Z,42.26
2023-02-28T12:48:11.689Z,42.40
2023-02-28T12:50:39.297Z,41.61
2023-02-28T12:53:37.237Z,41.57
2023-02-28T12:56:16.901Z,41.17
2023-02-28T12:58:54.940Z,41.04
2023-02-28T13:01:37.498Z,41.01
2023-02-28T13:04:29.755Z,41.18
2023-02-28T13:07:18.859Z,40.84
2023-02-28T13:10:01.131Z,40.92
2023-02-28T13:12:28.908Z,40.14
2023-02-28T13:15:25.762Z,40.12
2023-02-28T13:17:58.122Z,40.19
2023-02-28T13:20:36.964Z,40.53
2023-02-28T13:23:06.496Z,40.39
2023-02-28T13:25:43.024Z,39.92
2023-02-28T13:28:13.305Z,39.80
2023-02-28T13:30:53.196Z,39.30
2023-02-28T13:33:36.363Z,39.87
2023-02-28T13:36:11.302Z,39.68
2023-02-28T13:38:43.501Z,39.61
2023-02-28T13:41:32.794Z,39.46
2023-02-28T13:44:32.501Z,39.55
2023-02-28T13:47:01.516Z,40.21
2023-02-28T13:49:30.200Z,40.34
2023-02-28T13:52:17.876Z,40.14
2023-02-28T13:55:17.518Z,39.92
2023-02-28T13:58:29.920Z,39.75
2023-02-28T14:01:24.413Z,39.02
2023-02-28T14:04:04.554Z,38.55
2023-02-28T14:06:34.397Z,39.14
2023-02-28T14:09:08.911Z,38.88
2023-02-28T14:11:38.551Z,38.83
2023-02-28T14:14:08.259Z,38.73
2023-02-28T14:16:48.009Z,38.86
2023-02-28T14:19:32.651Z,38.65
2023-02-28T14:22:05.739Z,39.25
2023-02-28T14:24:42.069Z,39.49
2023-02-28T14:27:28.075Z,39.38
2023-02-28T14:30:05.818Z,38.42
2023-02-28T14:32:39.303Z,38.24
2023-02-28T14:35:28.007Z,37.98
2023-02-28T14:37:56.116Z,37.85
2023-02-28T14:40:28.599Z,37.01
2023-02-28T14:43:01.247Z,36.77
2023-02-28T14:45:31.658Z,36.28
2023-02-28T14:48:00.361Z,36.28
2023-02-28T14:50:35.032Z,36.75
2023-02-28T14:53:03.532Z,36.46
2023-02-28T14:55:32.986Z,36.13
2023-02-28T14:58:19.069Z,35.99
2023-02-28T15:00:51.770Z,36.10
2023-02-28T15:03:40.285Z,36.49
2023-02-28T15:06:15.036Z,36.62
2023-02-28T15:08:42.353Z,35.89
2023-02-28T15:11:14.331Z,35.79
2023-02-28T15:13:47.599Z,35.86
2023-02-28T15:16:18.208Z,35.91
2023-02-28T15:18:49.311Z,35.59
2023-02-28T15:21:22.517Z,35.35
2023-02-28T15:23:54.762Z,35.90
2023-02-28T15:26:24.982Z,35.56
2023-02-28T15:28:58.260Z,35.43
2023-02-28T15:31:58.738Z,35.52
2023-02-28T15:34:43.027Z,35.82
2023-02-28T15:37:31.832Z,35.65
2023-02-28T15:40:11.781Z,35.06
2023-02-28T15:42:39.191Z,36.14
2023-02-28T15:45:07.038Z,36.00
2023-02-28T15:47:34.520Z,35.28
2023-02-28T15:50:04.587Z,35.38
2023-02-28T15:52:42.151Z,35.26
2023-02-28T15:55:13.613Z,35.13
2023-02-28T15:57:41.619Z,35.51
2023-02-28T16:00:14.402Z,35.63
2023-02-28T16:02:42.692Z,35.99
2023-02-28T16:05:09.991Z,35.93
2023-02-28T16:07:43.078Z,36.18
2023-02-28T16:10:12.632Z,35.83
2023-02-28T16:12:40.853Z,36.52
2023-02-28T16:15:30.079Z,36.16
2023-02-28T16:17:58.013Z,35.48
2023-02-28T16:20:31.155Z,35.22
2023-02-28T16:23:02.330Z,35.77
2023-02-28T16:25:40.771Z,35.50
2023-02-28T16:28:19.570Z,35.93
2023-02-28T16:30:46.996Z,35.66
2023-02-28T16:33:14.327Z,35.58
2023-02-28T16:35:47.211Z,35.67
2023-02-28T16:38:14.509Z,35.76
2023-02-28T16:40:41.862Z,36.33
2023-02-28T16:43:17.143Z,36.28
2023-02-28T16:45:44.969Z,36.86
2023-02-28T16:48:14.858Z,37.60
2023-02-28T16:50:42.217Z,37.56
2023-02-28T16:53:09.583Z,37.39
2023-02-28T16:55:36.955Z,37.06
2023-02-28T16:58:04.957Z,37.47
2023-02-28T17:00:33.622Z,37.63
2023-02-28T17:03:01.244Z,37.33
2023-02-28T17:05:33.677Z,37.15
2023-02-28T17:08:02.692Z,36.80
2023-02-28T17:10:30.503Z,36.48
2023-02-28T17:13:06.190Z,36.05
2023-02-28T17:15:41.802Z,35.67
2023-02-28T17:18:13.053Z,36.01
2023-02-28T17:20:40.405Z,36.11
2023-02-28T17:23:08.014Z,36.49
2023-02-28T17:25:35.480Z,36.16
2023-02-28T17:28:02.887Z,36.37
2023-02-28T17:30:34.517Z,36.15
2023-02-28T17:33:01.944Z,35.96
2023-02-28T17:35:29.614Z,36.58
2023-02-28T17:37:57.091Z,36.22
2023-02-28T17:40:24.978Z,36.20
2023-02-28T17:42:53.495Z,35.68
2023-02-28T17:45:21.029Z,35.92
2023-02-28T17:47:54.214Z,36.14
2023-02-28T17:50:22.757Z,35.89
2023-02-28T17:52:51.456Z,36.12
2023-02-28T17:55:20.095Z,36.32
2023-02-28T17:57:47.843Z,36.17
2023-02-28T18:00:17.063Z,36.34
2023-02-28T18:02:45.070Z,36.45
2023-02-28T18:05:12.838Z,36.50
2023-02-28T18:07:40.826Z,38.04
2023-02-28T18:10:15.993Z,37.18
2023-02-28T18:12:44.077Z,36.93
2023-02-28T18:15:11.805Z,36.99
2023-02-28T18:17:39.478Z,36.80
2023-02-28T18:20:07.121Z,36.91
2023-02-28T18:22:36.974Z,36.86
2023-02-28T18:25:05.770Z,36.86
2023-02-28T18:27:34.055Z,36.99
2023-02-28T18:30:01.887Z,37.23
2023-02-28T18:32:29.966Z,37.52
2023-02-28T18:34:57.710Z,37.04
2023-02-28T18:37:25.468Z,37.28
2023-02-28T18:39:52.754Z,37.14
2023-02-28T18:42:20.024Z,37.18
2023-02-28T18:44:47.520Z,36.89
2023-02-28T18:47:14.986Z,37.35
2023-02-28T18:49:42.220Z,36.91
2023-02-28T18:52:09.569Z,37.54
2023-02-28T18:54:36.939Z,37.43
2023-02-28T18:57:06.784Z,37.34
2023-02-28T18:59:34.076Z,37.70
2023-02-28T19:02:01.389Z,37.45
2023-02-28T19:04:28.918Z,37.86
2023-02-28T19:06:56.278Z,37.60
2023-02-28T19:09:24.067Z,37.78
2023-02-28T19:11:51.789Z,37.61
2023-02-28T19:14:21.033Z,38.10
2023-02-28T19:16:50.276Z,38.08
2023-02-28T19:19:17.638Z,38.33
2023-02-28T19:21:45.063Z,38.30
2023-02-28T19:24:12.599Z,38.00
2023-02-28T19:26:40.434Z,38.04
2023-02-28T19:29:07.856Z,37.79
2023-02-28T19:31:35.393Z,38.44
2023-02-28T19:34:02.803Z,38.70
2023-02-28T19:36:30.186Z,38.66
2023-02-28T19:38:57.877Z,38.35
2023-02-28T19:41:25.528Z,38.86
2023-02-28T19:43:53.451Z,38.97
2023-02-28T19:46:20.764Z,39.14
2023-02-28T19:48:48.851Z,38.94
2023-02-28T19:53:45.028Z,39.01
2023-02-28T19:56:12.673Z,39.25
2023-02-28T19:58:40.169Z,38.72
2023-02-28T20:01:15.537Z,39.12
2023-02-28T20:03:43.352Z,39.23
2023-02-28T20:06:13.896Z,38.96
2023-02-28T20:08:41.605Z,39.16
2023-02-28T20:11:11.559Z,39.01
2023-02-28T20:13:38.901Z,39.22
2023-02-28T20:16:09.639Z,39.01
2023-02-28T20:18:38.133Z,38.83
2023-02-28T20:21:08.642Z,38.90
2023-02-28T20:23:38.228Z,39.21
2023-02-28T20:26:06.163Z,39.02
2023-02-28T20:28:33.620Z,39.01
2023-02-28T20:31:01.357Z,39.26
2023-02-28T20:33:28.936Z,39.54
2023-02-28T20:36:01.226Z,39.76
2023-02-28T20:38:28.820Z,39.91
2023-02-28T20:40:58.293Z,40.30
2023-02-28T20:43:26.376Z,40.70
2023-02-28T20:45:55.493Z,40.14
2023-02-28T20:48:22.856Z,40.84
2023-02-28T20:50:51.241Z,40.82
2023-02-28T20:53:19.376Z,40.69
2023-02-28T20:56:04.729Z,40.62
2023-02-28T20:58:34.246Z,40.96
2023-02-28T21:01:15.845Z,41.10
2023-02-28T21:03:48.477Z,41.46
2023-02-28T21:06:17.961Z,41.15
2023-02-28T21:08:45.389Z,41.45
2023-02-28T21:11:15.070Z,41.49
2023-02-28T21:13:43.470Z,41.28
2023-02-28T21:16:13.721Z,41.00
2023-02-28T21:18:41.172Z,41.64
2023-02-28T21:21:14.673Z,42.03
2023-02-28T21:23:42.473Z,42.17
2023-02-28T21:26:12.220Z,42.52
2023-02-28T21:28:44.257Z,42.09
2023-02-28T21:31:14.541Z,42.35
2023-02-28T21:33:43.367Z,41.91
2023-02-28T21:36:16.021Z,42.21
2023-02-28T21:38:44.713Z,42.15
2023-02-28T21:41:18.413Z,42.69
2023-02-28T21:43:46.403Z,42.80
2023-02-28T21:46:17.389Z,43.14
2023-02-28T21:48:45.189Z,43.27
2023-02-28T21:51:15.126Z,43.56
2023-02-28T21:53:43.203Z,43.42
2023-02-28T21:56:16.465Z,44.28
2023-02-28T21:58:44.141Z,44.67
2023-02-28T22:01:19.651Z,44.27
2023-02-28T22:03:48.656Z,44.28
2023-02-28T22:06:17.716Z,44.84
2023-02-28T22:08:47.188Z,44.57
2023-02-28T22:11:15.313Z,44.30
2023-02-28T22:13:43.204Z,44.70
2023-02-28T22:16:16.974Z,44.58
2023-02-28T22:18:44.945Z,44.98
2023-02-28T22:21:13.496Z,45.11
2023-02-28T22:23:41.929Z,45.28
2023-02-28T22:26:11.947Z,45.23
2023-02-28T22:28:39.678Z,45.37
2023-02-28T22:31:33.601Z,45.66
2023-02-28T22:34:03.483Z,45.59
2023-02-28T22:36:31.202Z,45.55
2023-02-28T22:38:58.930Z,45.72
2023-02-28T22:41:26.702Z,45.59
2023-02-28T22:43:56.402Z,45.21
2023-02-28T22:46:24.903Z,45.94
2023-02-28T22:48:52.858Z,46.15
2023-02-28T22:51:25.619Z,46.15
2023-02-28T22:53:55.035Z,46.22
2023-02-28T22:56:23.883Z,46.21
2023-02-28T22:58:52.826Z,46.29
2023-02-28T23:01:22.211Z,46.56
2023-02-28T23:03:49.821Z,46.45
2023-02-28T23:06:32.269Z,46.41
2023-02-28T23:09:02.935Z,46.47
2023-02-28T23:11:42.714Z,46.41
2023-02-28T23:14:12.821Z,46.37
2023-02-28T23:16:49.843Z,46.56
2023-02-28T23:19:22.433Z,46.94
2023-02-28T23:21:50.132Z,47.12
2023-02-28T23:24:19.343Z,46.97
2023-02-28T23:26:49.513Z,46.86
2023-02-28T23:29:23.569Z,46.88
2023-02-28T23:31:51.180Z,46.89
2023-02-28T23:34:26.487Z,47.11
2023-02-28T23:36:54.622Z,46.96
2023-02-28T23:39:24.128Z,47.27
2023-02-28T23:41:51.636Z,47.52
2023-02-28T23:44:19.845Z,47.66
2023-02-28T23:46:49.528Z,47.31
2023-02-28T23:49:20.412Z,47.50
2023-02-28T23:51:49.368Z,47.78
2023-02-28T23:54:18.030Z,47.46
2023-02-28T23:56:45.578Z,47.33
2023-02-28T23:59:13.435Z,47.65
